Time;durP1;ratioP1;P1;durP2;ratioP2;P2;SDS_P1;SDS_P2;PMS_P1;PMS_P2;Temp;Humidity;BMP_temperature;BMP_pressure;BME280_temperature;BME280_humidity;BME280_pressure;Samples;Min_cycle;Max_cycle;Signal;HPM_P1;HPM_P2
2023/10/23 00:01:42;;;;;;;;;7.20;7.00;;;;;18.04;50.88;99367.03;5066696;28;8839;-73
2023/10/23 00:04:11;;;;;;;;;6.20;6.20;;;;;18.04;50.72;99367.03;5068145;28;8850;-72
2023/10/23 00:06:42;;;;;;;;;5.80;5.20;;;;;18.04;50.86;99367.03;5068466;28;8822;-72
2023/10/23 00:09:12;;;;;;;;;6.80;6.20;;;;;18.03;50.78;99370.63;5066905;28;8830;-73
2023/10/23 00:11:40;;;;;;;;;6.40;5.80;;;;;17.99;50.89;99369.94;5067710;28;8862;-72
2023/10/23 00:14:09;;;;;;;;;6.40;5.40;;;;;17.94;51.08;99370.16;5049888;28;8930;-71
2023/10/23 00:16:38;;;;;;;;;6.80;6.40;;;;;17.92;51.09;99371.19;5053902;28;8993;-68
2023/10/23 00:19:07;;;;;;;;;6.20;6.20;;;;;17.91;51.20;99369.47;5066703;28;9552;-68
2023/10/23 00:21:36;;;;;;;;;6.20;6.20;;;;;17.78;51.46;99361.31;5067761;28;8866;-69
2023/10/23 00:24:07;;;;;;;;;8.00;7.40;;;;;17.75;51.63;99362.31;5067496;28;8847;-71
2023/10/23 00:26:35;;;;;;;;;4.80;4.80;;;;;17.73;51.83;99366.00;5067517;28;8885;-70
2023/10/23 00:29:04;;;;;;;;;5.60;5.20;;;;;17.67;51.86;99353.91;5064387;28;8854;-71
2023/10/23 00:31:33;;;;;;;;;6.80;5.00;;;;;17.63;52.10;99360.34;5070625;28;8874;-70
2023/10/23 00:34:03;;;;;;;;;5.80;4.80;;;;;17.61;52.23;99356.91;5057819;28;8856;-73
2023/10/23 00:36:31;;;;;;;;;5.00;4.40;;;;;17.57;52.43;99350.88;5072287;28;8886;-71
2023/10/23 00:39:00;;;;;;;;;6.80;6.40;;;;;17.50;52.52;99352.16;5085129;28;8871;-72
2023/10/23 00:41:30;;;;;;;;;3.80;2.80;;;;;17.38;52.60;99353.66;5080005;28;8941;-71
2023/10/23 00:44:00;;;;;;;;;3.20;3.20;;;;;17.27;52.59;99361.31;5064844;28;8947;-71
2023/10/23 00:46:30;;;;;;;;;5.40;5.40;;;;;17.12;52.92;99365.59;5066232;28;8861;-71
2023/10/23 00:49:01;;;;;;;;;7.20;6.40;;;;;16.98;53.23;99362.75;5049872;28;8908;-73
2023/10/23 00:51:32;;;;;;;;;6.40;5.40;;;;;16.75;54.13;99361.28;5066513;28;8866;-70
2023/10/23 00:54:03;;;;;;;;;5.00;5.00;;;;;16.39;55.24;99362.94;5067727;28;8866;-70
2023/10/23 00:56:34;;;;;;;;;8.40;7.20;;;;;;;;5032678;28;8842;-71
2023/10/23 00:59:03;;;;;;;;;9.20;6.00;;;;;16.23;55.39;99352.22;5065272;28;9947;-72
2023/10/23 01:01:33;;;;;;;;;4.80;4.80;;;;;16.12;55.93;99357.19;5067533;28;8858;-70
2023/10/23 01:04:04;;;;;;;;;7.00;5.60;;;;;16.09;55.86;99354.66;5066481;28;8854;-72
2023/10/23 01:06:33;;;;;;;;;4.20;4.20;;;;;16.13;56.00;99355.38;5067554;28;9651;-71
2023/10/23 01:09:03;;;;;;;;;4.60;4.20;;;;;16.30;55.45;99358.09;5066666;28;8862;-72
2023/10/23 01:11:33;;;;;;;;;5.40;5.00;;;;;16.32;55.24;99358.91;5067648;28;8851;-70
2023/10/23 01:14:03;;;;;;;;;5.00;4.00;;;;;16.55;54.64;99357.81;5030586;28;8875;-71
2023/10/23 01:16:31;;;;;;;;;7.20;5.00;;;;;16.67;54.27;99353.69;5065813;28;8890;-70
2023/10/23 01:19:01;;;;;;;;;4.00;4.00;;;;;16.77;53.80;99352.28;5066281;28;8851;-71
2023/10/23 01:21:30;;;;;;;;;5.00;4.60;;;;;16.73;53.99;99352.53;5067298;28;9778;-70
2023/10/23 01:24:00;;;;;;;;;7.80;5.20;;;;;16.56;54.58;99348.91;5032046;28;8862;-71
2023/10/23 01:26:30;;;;;;;;;5.00;5.00;;;;;16.49;54.62;99349.28;5067325;28;8874;-69
2023/10/23 01:28:59;;;;;;;;;7.20;6.00;;;;;16.41;55.06;99355.78;5048605;28;8854;-71
2023/10/23 01:31:28;;;;;;;;;6.00;6.00;;;;;16.45;54.89;99367.13;5081447;28;9593;-70
2023/10/23 01:33:57;;;;;;;;;6.00;5.00;;;;;16.65;54.62;99367.97;5067186;28;8867;-70
2023/10/23 01:36:26;;;;;;;;;6.60;4.40;;;;;16.78;54.26;99371.75;5064477;28;8848;-71
2023/10/23 01:38:55;;;;;;;;;7.40;7.00;;;;;16.79;54.14;99376.09;5048294;28;8879;-71
2023/10/23 01:41:24;;;;;;;;;6.00;6.00;;;;;16.88;53.68;99373.00;5064750;28;8852;-69
2023/10/23 01:43:54;;;;;;;;;5.40;4.20;;;;;17.01;53.47;99373.25;5064527;28;8879;-70
2023/10/23 01:46:23;;;;;;;;;9.80;5.00;;;;;17.11;53.10;99379.78;5062349;28;9723;-72
2023/10/23 01:48:52;;;;;;;;;7.60;5.40;;;;;17.06;53.33;99379.19;5064490;28;8945;-71
2023/10/23 01:51:23;;;;;;;;;4.40;4.40;;;;;16.80;53.89;99376.03;5025707;28;8860;-70
2023/10/23 01:53:52;;;;;;;;;5.20;5.20;;;;;16.18;56.39;99377.25;5028180;28;8884;-70
2023/10/23 01:56:20;;;;;;;;;7.00;7.00;;;;;15.66;58.51;99380.47;4995306;28;8864;-70
2023/10/23 01:58:49;;;;;;;;;5.60;5.60;;;;;15.81;58.10;99377.16;5011905;28;8942;-72
2023/10/23 02:01:23;;;;;;;;;7.00;6.00;;;;;16.31;56.60;99380.19;5025798;28;9511;-73
2023/10/23 02:03:52;;;;;;;;;8.00;6.80;;;;;16.45;55.86;99377.75;5027997;28;8855;-71
2023/10/23 02:06:21;;;;;;;;;5.00;5.00;;;;;16.60;54.96;99381.47;5027882;28;8930;-69
2023/10/23 02:08:50;;;;;;;;;6.20;6.20;;;;;15.84;58.20;99378.78;5047577;28;8857;-71
2023/10/23 02:11:19;;;;;;;;;4.40;4.40;;;;;15.37;60.11;99381.75;5047938;28;8841;-71
2023/10/23 02:13:48;;;;;;;;;6.40;6.20;;;;;15.87;57.97;99376.03;5047584;28;8849;-70
2023/10/23 02:16:17;;;;;;;;;5.60;5.00;;;;;16.12;56.92;99372.22;5046055;28;8860;-71
2023/10/23 02:18:48;;;;;;;;;6.20;6.20;;;;;16.25;56.88;99381.34;5031017;28;8873;-71
2023/10/23 02:21:17;;;;;;;;;7.80;7.40;;;;;16.37;56.33;99386.03;5047373;28;8865;-71
2023/10/23 02:23:46;;;;;;;;;9.60;6.00;;;;;16.46;56.21;99392.75;5066068;28;8832;-71
2023/10/23 02:26:25;;;;;;;;;6.60;6.60;;;;;16.54;55.72;99387.91;5017640;28;8948;-71
2023/10/23 02:28:54;;;;;;;;;7.40;4.60;;;;;16.65;55.43;99386.56;5067200;28;8836;-71
2023/10/23 02:31:23;;;;;;;;;8.20;6.80;;;;;16.58;55.46;99392.13;5049046;28;8844;-70
2023/10/23 02:33:53;;;;;;;;;6.40;6.40;;;;;16.65;55.36;99395.38;5066857;28;8847;-73
2023/10/23 02:36:22;;;;;;;;;6.00;6.00;;;;;16.65;55.23;99399.81;5066884;28;8930;-72
2023/10/23 02:38:51;;;;;;;;;6.40;6.40;;;;;16.15;57.01;99393.28;5067281;28;8847;-73
2023/10/23 02:41:20;;;;;;;;;7.60;7.60;;;;;16.34;56.48;99391.50;5067153;28;8851;-70
2023/10/23 02:43:50;;;;;;;;;8.40;7.20;;;;;16.39;56.39;99399.22;5066852;28;8846;-72
2023/10/23 02:46:18;;;;;;;;;12.00;10.60;;;;;16.40;56.11;99399.16;5066085;28;8863;-70
2023/10/23 02:48:47;;;;;;;;;10.40;10.00;;;;;16.38;56.43;99397.53;5015824;28;8845;-71
2023/10/23 02:51:17;;;;;;;;;5.00;5.00;;;;;16.46;56.01;99394.53;5050539;28;8855;-69
2023/10/23 02:53:46;;;;;;;;;8.00;8.00;;;;;16.38;56.20;99389.56;5067610;28;8836;-71
2023/10/23 02:56:15;;;;;;;;;8.80;8.40;;;;;16.36;56.30;99397.59;5068300;28;8901;-69
2023/10/23 02:58:44;;;;;;;;;9.40;8.40;;;;;16.38;56.12;99401.03;5069811;28;8884;-70
2023/10/23 03:01:17;;;;;;;;;9.80;9.20;;;;;16.42;56.33;99407.91;5068119;28;8913;-69
2023/10/23 03:03:47;;;;;;;;;8.60;8.60;;;;;16.41;55.90;99408.84;5067647;28;8834;-70
2023/10/23 03:06:18;;;;;;;;;9.00;8.60;;;;;16.48;55.77;99406.78;5067975;28;8963;-71
2023/10/23 03:08:47;;;;;;;;;11.80;9.60;;;;;16.38;56.37;99403.69;5068033;28;8886;-72
2023/10/23 03:11:16;;;;;;;;;10.20;9.80;;;;;16.14;57.46;99408.34;5069627;28;8854;-71
2023/10/23 03:13:45;;;;;;;;;60.50;48.25;;;;;16.27;56.82;99413.94;5067662;28;8971;-71
2023/10/23 03:16:14;;;;;;;;;12.80;12.80;;;;;16.31;56.64;99412.00;5068195;28;9083;-70
2023/10/23 03:18:44;;;;;;;;;12.60;12.60;;;;;16.38;56.33;99411.66;5061944;28;8833;-72
2023/10/23 03:21:13;;;;;;;;;12.60;11.20;;;;;16.46;56.06;99410.47;5064279;28;8845;-70
2023/10/23 03:23:43;;;;;;;;;9.40;9.40;;;;;16.48;55.92;99413.91;5049173;28;8856;-72
2023/10/23 03:26:12;;;;;;;;;7.20;6.60;;;;;16.50;55.76;99410.22;5041732;28;8886;-69
2023/10/23 03:28:41;;;;;;;;;10.00;10.00;;;;;16.50;55.74;99412.88;5034362;28;8854;-70
2023/10/23 03:31:09;;;;;;;;;9.20;8.20;;;;;16.49;55.59;99412.94;5050206;28;9456;-73
2023/10/23 03:33:40;;;;;;;;;7.80;7.00;;;;;16.56;55.52;99419.69;5066304;28;8850;-72
2023/10/23 03:36:09;;;;;;;;;9.00;9.00;;;;;16.56;55.69;99420.53;5068764;28;8870;-71
2023/10/23 03:38:38;;;;;;;;;11.00;9.80;;;;;16.62;55.34;99416.75;5067367;28;8882;-69
2023/10/23 03:41:08;;;;;;;;;32.20;28.60;;;;;16.69;55.24;99422.63;5068365;28;8882;-70
2023/10/23 03:43:37;;;;;;;;;16.40;15.60;;;;;16.70;54.83;99419.03;5069005;28;8831;-70
2023/10/23 03:46:06;;;;;;;;;11.80;11.80;;;;;16.70;55.00;99419.03;5050517;28;8885;-70
2023/10/23 03:48:36;;;;;;;;;11.00;11.00;;;;;16.66;55.26;99413.00;5067128;28;9020;-71
2023/10/23 03:51:05;;;;;;;;;8.60;8.60;;;;;16.73;54.77;99419.72;5066839;28;9644;-70
2023/10/23 03:53:34;;;;;;;;;10.40;9.00;;;;;16.77;54.65;99417.78;5068619;28;8865;-71
2023/10/23 03:56:05;;;;;;;;;10.20;10.20;;;;;16.82;54.73;99413.13;5068374;28;8846;-69
2023/10/23 03:58:35;;;;;;;;;13.40;10.60;;;;;16.82;54.64;99421.09;5068275;28;8935;-71
2023/10/23 04:01:04;;;;;;;;;7.60;7.60;;;;;16.83;54.74;99416.63;5068138;28;8858;-71
2023/10/23 04:03:33;;;;;;;;;9.40;8.80;;;;;16.88;54.50;99411.97;5008671;28;8945;-70
2023/10/23 04:06:03;;;;;;;;;14.40;13.40;;;;;16.88;54.49;99415.47;5028425;28;8879;-70
2023/10/23 04:08:32;;;;;;;;;63.50;50.75;;;;;16.90;54.21;99408.28;5027943;28;8943;-70
2023/10/23 04:11:01;;;;;;;;;35.00;29.40;;;;;16.90;54.40;99410.09;5028297;28;8898;-73
2023/10/23 04:13:30;;;;;;;;;11.80;10.40;;;;;16.91;54.38;99411.78;5025765;28;8903;-71
2023/10/23 04:16:02;;;;;;;;;17.00;15.60;;;;;16.92;54.49;99408.22;5028081;28;8871;-70
2023/10/23 04:18:31;;;;;;;;;11.60;11.00;;;;;16.93;54.09;99409.97;4991580;28;8882;-70
2023/10/23 04:21:05;;;;;;;;;17.80;17.00;;;;;16.98;53.98;99402.59;5028240;28;8948;-70
2023/10/23 04:23:35;;;;;;;;;49.25;41.75;;;;;16.90;54.21;99407.44;5043092;28;8847;-73
2023/10/23 04:26:04;;;;;;;;;49.25;40.25;;;;;16.86;54.39;99398.75;5027082;28;8844;-71
2023/10/23 04:28:33;;;;;;;;;26.60;25.80;;;;;16.85;54.35;99398.84;5027872;28;8847;-71
2023/10/23 04:31:04;;;;;;;;;20.00;19.00;;;;;16.87;54.13;99403.16;5027532;28;8882;-73
2023/10/23 04:33:33;;;;;;;;;14.00;13.40;;;;;16.82;54.44;99399.84;5025965;28;9562;-70
2023/10/23 04:36:03;;;;;;;;;18.00;16.40;;;;;16.80;54.43;99399.06;5027551;28;8913;-73
2023/10/23 04:38:32;;;;;;;;;12.40;12.40;;;;;16.71;54.57;99405.69;5027833;28;8835;-70
2023/10/23 04:41:01;;;;;;;;;14.00;11.00;;;;;16.69;54.64;99396.09;5025289;28;9574;-71
2023/10/23 04:43:30;;;;;;;;;16.40;13.40;;;;;16.61;55.02;99391.16;5027699;28;8848;-71
2023/10/23 04:45:59;;;;;;;;;14.00;13.00;;;;;16.42;55.51;99399.94;5027713;28;8929;-71
2023/10/23 04:48:30;;;;;;;;;12.20;9.60;;;;;16.46;55.59;99400.69;5027296;28;8855;-70
2023/10/23 04:50:59;;;;;;;;;12.40;12.40;;;;;16.34;55.55;99401.25;5010112;28;8866;-69
2023/10/23 04:53:28;;;;;;;;;14.00;12.60;;;;;16.40;55.43;99398.31;5007719;28;8988;-71
2023/10/23 04:55:58;;;;;;;;;12.60;11.20;;;;;16.41;55.32;99397.38;5007881;28;8981;-70
2023/10/23 04:58:27;;;;;;;;;13.60;13.60;;;;;16.46;54.96;99403.34;4993734;28;8848;-72
2023/10/23 05:00:56;;;;;;;;;11.40;10.60;;;;;16.46;54.72;99399.84;5026981;28;8851;-73
2023/10/23 05:03:25;;;;;;;;;13.20;11.40;;;;;16.45;55.04;99396.31;5060340;28;8873;-69
2023/10/23 05:05:55;;;;;;;;;14.60;13.20;;;;;16.40;55.05;99406.28;5066801;28;8951;-71
2023/10/23 05:08:24;;;;;;;;;12.40;12.40;;;;;16.26;55.46;99396.28;5066973;28;8897;-70
2023/10/23 05:10:53;;;;;;;;;11.80;10.00;;;;;16.26;55.50;99396.28;5084435;28;8846;-71
2023/10/23 05:13:22;;;;;;;;;11.40;10.20;;;;;16.18;56.01;99404.63;5083667;28;8967;-71
2023/10/23 05:15:51;;;;;;;;;10.40;10.40;;;;;15.88;57.09;99413.97;5084635;28;9000;-72
2023/10/23 05:18:20;;;;;;;;;12.20;11.40;;;;;15.99;56.53;99412.56;5084124;28;8850;-71
2023/10/23 05:20:48;;;;;;;;;17.80;15.80;;;;;15.85;57.02;99415.00;5067081;28;8915;-70
2023/10/23 05:23:19;;;;;;;;;15.60;15.60;;;;;15.61;57.97;99417.78;5084700;28;8850;-71
2023/10/23 05:25:48;;;;;;;;;13.60;10.80;;;;;14.86;60.44;99435.00;5085092;28;8862;-71
2023/10/23 05:28:17;;;;;;;;;14.20;12.00;;;;;15.27;58.72;99428.09;5088808;28;9069;-70
2023/10/23 05:30:45;;;;;;;;;13.40;13.40;;;;;15.43;58.22;99435.31;5086393;28;8888;-72
2023/10/23 05:33:14;;;;;;;;;12.80;12.80;;;;;15.54;57.84;99432.19;5088066;28;8854;-71
2023/10/23 05:35:42;;;;;;;;;14.00;12.80;;;;;15.66;57.28;99437.91;5088079;28;8878;-70
2023/10/23 05:38:11;;;;;;;;;14.80;14.00;;;;;15.71;57.13;99438.59;5087934;28;8849;-71
2023/10/23 05:40:41;;;;;;;;;15.40;14.20;;;;;15.77;56.77;99439.16;5053582;28;9033;-70
2023/10/23 05:43:16;;;;;;;;;15.40;15.00;;;;;15.83;56.84;99436.25;5068658;28;8858;-70
2023/10/23 05:45:45;;;;;;;;;12.60;12.60;;;;;15.91;56.29;99437.72;5068685;28;8858;-70
2023/10/23 05:48:14;;;;;;;;;19.80;18.60;;;;;15.98;56.19;99442.66;5069883;28;8842;-71
2023/10/23 05:50:43;;;;;;;;;15.20;14.60;;;;;16.05;56.09;99442.38;5070093;28;8947;-71
2023/10/23 05:53:12;;;;;;;;;14.60;14.20;;;;;16.11;55.87;99450.06;5068484;28;8971;-70
2023/10/23 05:55:42;;;;;;;;;14.00;12.00;;;;;;;;5017942;28;8910;-71
2023/10/23 05:58:11;;;;;;;;;14.20;14.20;;;;;16.28;55.30;99450.13;5053848;28;8900;-71
2023/10/23 06:00:39;;;;;;;;;15.00;14.00;;;;;16.35;55.48;99443.63;5070090;28;8881;-72
2023/10/23 06:03:08;;;;;;;;;12.40;12.40;;;;;16.43;55.06;99451.22;5046459;28;8957;-72
2023/10/23 06:05:41;;;;;;;;;5.00;4.00;;;;;16.50;55.11;99441.22;5070720;28;8986;-71
2023/10/23 06:08:10;;;;;;;;;7.00;7.00;;;;;16.56;55.03;99443.56;5034965;28;8877;-70
2023/10/23 06:10:43;;;;;;;;;8.40;6.80;;;;;16.74;54.71;99452.47;5070672;28;8854;-70
2023/10/23 06:13:13;;;;;;;;;8.80;8.60;;;;;16.79;54.44;99456.59;5070134;28;8854;-72
2023/10/23 06:15:41;;;;;;;;;7.60;6.00;;;;;16.94;54.00;99462.97;5068839;28;8957;-70
2023/10/23 06:18:10;;;;;;;;;14.80;13.80;;;;;17.06;53.86;99468.59;5068501;28;8861;-70
2023/10/23 06:20:39;;;;;;;;;18.00;16.40;;;;;17.00;54.10;99475.06;5034181;28;8870;-71
2023/10/23 06:23:08;;;;;;;;;19.20;18.20;;;;;16.89;54.29;99483.59;5018511;28;8946;-71
2023/10/23 06:25:37;;;;;;;;;22.60;22.40;;;;;17.01;53.96;99490.09;5067801;28;9010;-72
2023/10/23 06:28:08;;;;;;;;;28.40;28.00;;;;;17.15;53.77;99490.25;5069607;28;8886;-71
2023/10/23 06:30:37;;;;;;;;;27.20;24.80;;;;;17.28;53.64;99489.69;5069829;28;8839;-72
2023/10/23 06:33:06;;;;;;;;;22.00;20.60;;;;;17.39;53.29;99490.88;5068870;28;8870;-70
2023/10/23 06:35:35;;;;;;;;;17.80;17.60;;;;;17.47;52.82;99497.59;5069515;28;8866;-72
2023/10/23 06:38:04;;;;;;;;;19.60;19.00;;;;;17.58;52.45;99506.75;5016066;28;8846;-72
2023/10/23 06:40:33;;;;;;;;;18.60;18.40;;;;;17.64;52.00;99505.56;5069061;28;8874;-72
2023/10/23 06:43:02;;;;;;;;;21.80;20.80;;;;;17.71;51.89;99508.78;5068996;28;8846;-72
2023/10/23 06:45:32;;;;;;;;;20.60;20.60;;;;;17.74;51.70;99506.84;5069101;28;8944;-71
2023/10/23 06:48:21;;;;;;;;;19.80;19.80;;;;;17.82;51.21;99508.25;5068351;28;8870;-69
2023/10/23 06:50:50;;;;;;;;;23.00;21.40;;;;;17.76;51.42;99512.94;5068935;28;8869;-71
2023/10/23 06:53:19;;;;;;;;;16.60;15.20;;;;;17.83;51.01;99520.59;5068448;28;8891;-71
2023/10/23 06:55:48;;;;;;;;;21.20;18.60;;;;;17.84;51.10;99520.53;5068986;28;8961;-71
2023/10/23 06:58:18;;;;;;;;;28.80;26.60;;;;;17.53;52.52;99521.22;5033748;28;8850;-72
2023/10/23 07:00:49;;;;;;;;;30.40;30.20;;;;;17.14;54.08;99535.50;5049715;28;8928;-71
2023/10/23 07:03:18;;;;;;;;;28.00;27.00;;;;;16.99;54.77;99531.78;5069039;28;8897;-72
2023/10/23 07:05:47;;;;;;;;;23.00;21.40;;;;;16.59;56.25;99533.66;5033655;28;8966;-71
2023/10/23 07:08:16;;;;;;;;;36.20;31.80;;;;;16.20;57.36;99531.84;5068824;28;8866;-72
2023/10/23 07:10:45;;;;;;;;;41.00;35.00;;;;;16.45;56.46;99536.94;5068589;28;8881;-72
2023/10/23 07:13:15;;;;;;;;;31.00;29.50;;;;;16.31;56.58;99540.19;5068545;28;8864;-71
2023/10/23 07:15:54;;;;;;;;;31.75;30.50;;;;;16.36;56.65;99539.97;5068157;28;8912;-70
2023/10/23 07:18:23;;;;;;;;;27.60;25.00;;;;;16.55;56.35;99532.94;5068325;28;8892;-71
2023/10/23 07:20:54;;;;;;;;;25.80;24.40;;;;;15.93;58.74;99540.09;5068744;28;8863;-71
2023/10/23 07:23:24;;;;;;;;;14.80;14.80;;;;;15.68;59.79;99552.66;5068365;28;8869;-72
2023/10/23 07:26:01;;;;;;;;;11.80;10.00;;;;;15.20;61.34;99550.13;5032653;28;8880;-71
2023/10/23 07:28:30;;;;;;;;;21.00;20.60;;;;;15.14;62.28;99555.69;5067663;28;8971;-71
2023/10/23 07:31:04;;;;;;;;;23.20;21.60;;;;;15.34;61.86;99556.66;5068548;28;8943;-71
2023/10/23 07:33:33;;;;;;;;;21.40;20.20;;;;;15.60;60.86;99556.50;5068036;28;10071;-71
2023/10/23 07:36:03;;;;;;;;;14.60;14.00;;;;;15.99;59.46;99549.56;5067809;28;8854;-71
2023/10/23 07:38:32;;;;;;;;;23.40;18.60;;;;;16.40;58.32;99546.88;5029602;28;8894;-73
2023/10/23 07:41:01;;;;;;;;;18.60;17.00;;;;;16.75;57.45;99542.63;5032730;28;9691;-70
2023/10/23 07:43:31;;;;;;;;;9.20;9.00;;;;;17.08;55.65;99541.97;5066095;28;8860;-71
2023/10/23 07:46:06;;;;;;;;;11.20;11.20;;;;;17.36;54.34;99543.31;5067702;28;8858;-71
2023/10/23 07:48:44;;;;;;;;;13.80;12.00;;;;;17.58;53.05;99533.31;5068019;28;8851;-70
2023/10/23 07:51:15;;;;;;;;;11.80;11.80;;;;;17.45;53.06;99542.84;5068555;28;8866;-73
2023/10/23 07:53:44;;;;;;;;;12.60;11.20;;;;;17.76;51.88;99533.34;5067883;28;8838;-71
2023/10/23 07:56:13;;;;;;;;;13.00;11.20;;;;;17.96;51.47;99535.81;5066933;28;8862;-71
2023/10/23 07:58:42;;;;;;;;;12.40;12.40;;;;;18.04;51.02;99538.13;5066648;28;8847;-72
2023/10/23 08:01:13;;;;;;;;;12.60;12.60;;;;;18.38;50.74;99535.47;5031606;28;8870;-71
2023/10/23 08:03:42;;;;;;;;;13.20;11.20;;;;;18.58;50.06;99531.75;5067533;28;8854;-71
2023/10/23 08:06:11;;;;;;;;;12.20;11.40;;;;;18.84;49.70;99527.69;5068025;28;8889;-71
2023/10/23 08:08:41;;;;;;;;;11.60;11.60;;;;;19.06;48.78;99533.50;5054360;28;8854;-71
2023/10/23 08:11:12;;;;;;;;;12.00;11.00;;;;;19.28;48.01;99526.97;5066533;28;8932;-71
2023/10/23 08:13:42;;;;;;;;;12.20;11.00;;;;;19.41;47.63;99522.66;5058113;28;8842;-71
2023/10/23 08:16:10;;;;;;;;;17.40;15.40;;;;;19.60;47.42;99522.47;5067495;28;8885;-71
2023/10/23 08:18:41;;;;;;;;;13.80;13.00;;;;;19.75;46.81;99526.03;5067686;28;8954;-72
2023/10/23 08:21:12;;;;;;;;;18.00;15.60;;;;;19.89;46.55;99523.38;5067417;28;8858;-72
2023/10/23 08:23:42;;;;;;;;;15.80;13.60;;;;;20.05;46.02;99523.31;5066514;28;8850;-72
2023/10/23 08:26:11;;;;;;;;;7.40;6.80;;;;;20.19;45.69;99527.81;5067565;28;8886;-68
2023/10/23 08:28:41;;;;;;;;;18.40;18.20;;;;;20.21;45.53;99523.22;5067853;28;8885;-72
2023/10/23 08:31:13;;;;;;;;;22.60;21.40;;;;;20.29;45.39;99534.34;5031889;28;8850;-74
2023/10/23 08:34:03;;;;;;;;;29.00;26.60;;;;;20.44;45.69;99523.66;5067831;28;8878;-69
2023/10/23 08:36:32;;;;;;;;;35.00;32.25;;;;;20.56;45.54;99525.56;5067033;28;8873;-71
2023/10/23 08:39:02;;;;;;;;;27.20;26.20;;;;;20.53;44.42;99538.25;5067854;28;8862;-70
2023/10/23 08:41:34;;;;;;;;;31.40;24.60;;;;;20.31;45.07;99541.38;5067464;28;10267;-69
2023/10/23 08:44:04;;;;;;;;;28.00;25.40;;;;;20.32;45.33;99538.63;5067211;28;8901;-69
2023/10/23 08:46:33;;;;;;;;;28.40;24.60;;;;;20.46;45.51;99543.97;5067251;28;8901;-69
2023/10/23 08:49:04;;;;;;;;;28.60;25.40;;;;;20.57;45.29;99545.97;5066714;28;8842;-70
2023/10/23 08:51:35;;;;;;;;;27.00;25.00;;;;;20.67;45.08;99541.78;5066656;28;8889;-70
2023/10/23 08:54:08;;;;;;;;;23.00;23.00;;;;;20.75;44.47;99533.28;5067504;28;8961;-67
2023/10/23 08:56:43;;;;;;;;;22.20;19.40;;;;;20.80;44.63;99539.19;5067236;28;8970;-68
2023/10/23 08:59:14;;;;;;;;;20.60;20.00;;;;;20.86;44.48;99537.94;5066711;28;8916;-71
2023/10/23 09:01:43;;;;;;;;;20.80;18.20;;;;;20.95;44.35;99540.03;5068045;28;8847;-69
2023/10/23 09:04:13;;;;;;;;;23.20;22.00;;;;;21.11;43.66;99534.56;5071049;28;8848;-69
2023/10/23 09:06:43;;;;;;;;;13.80;12.00;;;;;21.15;43.15;99525.38;5052744;28;8909;-67
2023/10/23 09:09:12;;;;;;;;;13.00;11.60;;;;;21.20;43.07;99533.97;5070726;28;8920;-69
2023/10/23 09:11:44;;;;;;;;;10.20;10.20;;;;;21.29;42.33;99531.63;5071455;28;8862;-67
2023/10/23 09:14:24;;;;;;;;;8.00;8.00;;;;;21.45;41.92;99527.84;5052379;28;8878;-69
2023/10/23 09:16:54;;;;;;;;;7.20;7.20;;;;;21.24;41.68;99539.97;5071347;28;9640;-70
2023/10/23 09:19:33;;;;;;;;;7.80;7.80;;;;;21.39;41.58;99533.59;5069007;28;8943;-70
2023/10/23 09:22:04;;;;;;;;;11.40;10.40;;;;;21.30;41.78;99534.22;5071047;28;8964;-70
2023/10/23 09:24:34;;;;;;;;;10.00;9.20;;;;;21.38;41.77;99534.56;5070852;28;8846;-69
2023/10/23 09:27:05;;;;;;;;;8.20;7.20;;;;;21.41;41.35;99537.03;5070062;28;8891;-69
2023/10/23 09:29:34;;;;;;;;;9.20;8.60;;;;;21.38;41.51;99523.00;5071151;28;8850;-68
2023/10/23 09:32:06;;;;;;;;;9.40;9.40;;;;;21.47;41.40;99526.91;5071275;28;8863;-69
2023/10/23 09:34:41;;;;;;;;;6.20;4.80;;;;;21.60;41.30;99527.81;5071238;28;8854;-70
2023/10/23 09:37:10;;;;;;;;;12.80;12.40;;;;;21.32;40.78;99529.63;5071013;28;8874;-70
2023/10/23 09:39:41;;;;;;;;;9.80;8.00;;;;;20.57;41.90;99531.75;5070572;28;8985;-70
2023/10/23 09:42:09;;;;;;;;;10.00;9.60;;;;;21.02;41.73;99528.00;5035677;28;8897;-71
2023/10/23 09:44:41;;;;;;;;;8.00;8.00;;;;;21.21;41.21;99527.63;5070831;28;9014;-70
2023/10/23 09:47:12;;;;;;;;;5.20;5.00;;;;;21.34;40.07;99533.03;5035018;28;8963;-71
2023/10/23 09:49:42;;;;;;;;;5.60;5.00;;;;;21.47;39.54;99526.91;5070589;28;8955;-68
2023/10/23 09:52:14;;;;;;;;;6.20;6.20;;;;;21.46;39.70;99520.66;5070728;28;9569;-68
2023/10/23 09:54:48;;;;;;;;;4.80;4.80;;;;;21.60;39.63;99520.66;5070914;28;8842;-70
2023/10/23 09:57:18;;;;;;;;;5.60;5.60;;;;;21.64;39.11;99523.97;5070589;28;8887;-69
2023/10/23 09:59:54;;;;;;;;;5.00;5.00;;;;;21.65;39.25;99525.66;5070557;28;8864;-69
2023/10/23 10:02:29;;;;;;;;;6.00;4.00;;;;;21.87;39.24;99527.75;5064465;28;8837;-70
2023/10/23 10:05:04;;;;;;;;;6.00;5.00;;;;;22.00;38.68;99522.41;5053945;28;8841;-71
2023/10/23 10:07:42;;;;;;;;;8.00;6.00;;;;;22.06;38.73;99513.09;5069230;28;8943;-70
2023/10/23 10:10:12;;;;;;;;;8.00;7.80;;;;;22.12;38.95;99510.00;5070453;28;8935;-71
2023/10/23 10:12:42;;;;;;;;;6.80;6.80;;;;;22.13;38.30;99503.69;5069948;28;8858;-72
2023/10/23 10:15:12;;;;;;;;;7.00;7.00;;;;;22.20;38.37;99505.81;5068168;28;8850;-71
2023/10/23 10:17:41;;;;;;;;;6.80;6.80;;;;;22.33;38.55;99502.31;5068091;28;8878;-72
2023/10/23 10:20:14;;;;;;;;;6.80;6.00;;;;;22.42;38.00;99498.97;5070018;28;8843;-69
2023/10/23 10:22:44;;;;;;;;;5.20;5.20;;;;;22.49;37.70;99494.91;5070017;28;8861;-69
2023/10/23 10:25:14;;;;;;;;;5.80;5.00;;;;;22.55;37.30;99501.63;5070261;28;8851;-70
2023/10/23 10:27:43;;;;;;;;;6.40;6.40;;;;;22.60;37.48;99494.97;5069996;28;9744;-71
2023/10/23 10:30:40;;;;;;;;;6.80;6.80;;;;;22.75;37.56;99493.00;5069702;28;8889;-70
2023/10/23 10:33:11;;;;;;;;;6.80;6.80;;;;;22.69;37.49;99497.94;5069702;28;8988;-70
2023/10/23 10:36:03;;;;;;;;;8.00;7.00;;;;;22.79;37.19;99499.84;5069554;28;8893;-71
2023/10/23 10:38:34;;;;;;;;;8.80;8.40;;;;;22.87;37.52;99491.25;5069564;28;8854;-70
2023/10/23 10:41:04;;;;;;;;;8.00;7.20;;;;;22.97;37.11;99495.00;5069527;28;8846;-70
2023/10/23 10:43:34;;;;;;;;;13.80;12.40;;;;;22.98;36.93;99486.00;5069422;28;8981;-71
2023/10/23 10:46:14;;;;;;;;;7.80;6.00;;;;;23.06;36.69;99481.88;5070040;28;8846;-70
2023/10/23 10:48:44;;;;;;;;;7.40;6.40;;;;;23.14;36.43;99477.66;5068260;28;8862;-69
2023/10/23 10:51:17;;;;;;;;;6.60;6.60;;;;;23.28;36.72;99473.06;5069690;28;8841;-73
2023/10/23 10:53:46;;;;;;;;;8.20;7.20;;;;;23.26;36.59;99480.38;5069540;28;8862;-70
2023/10/23 10:56:16;;;;;;;;;6.20;4.80;;;;;23.46;36.04;99477.06;5069309;28;8854;-70
2023/10/23 10:58:45;;;;;;;;;5.60;5.60;;;;;23.53;35.69;99467.59;5069052;28;8939;-72
2023/10/23 11:01:14;;;;;;;;;6.60;5.20;;;;;23.62;35.84;99466.06;5066150;28;8882;-70
2023/10/23 11:03:43;;;;;;;;;5.00;5.00;;;;;23.68;35.82;99464.72;5063911;28;8846;-71
2023/10/23 11:06:12;;;;;;;;;6.80;6.80;;;;;23.69;35.67;99464.59;5068020;28;8853;-70
2023/10/23 11:08:42;;;;;;;;;5.00;4.00;;;;;23.74;35.99;99458.88;5068660;28;8866;-70
2023/10/23 11:11:12;;;;;;;;;6.20;6.20;;;;;23.90;35.67;99461.22;5068034;28;8900;-69
2023/10/23 11:13:40;;;;;;;;;7.80;6.40;;;;;23.92;35.59;99456.56;5068378;28;8874;-69
2023/10/23 11:16:09;;;;;;;;;10.20;8.80;;;;;24.06;35.35;99453.66;5068557;28;8861;-70
2023/10/23 11:18:38;;;;;;;;;8.00;7.20;;;;;24.18;34.97;99446.50;5066907;28;8858;-70
2023/10/23 11:21:09;;;;;;;;;5.80;5.40;;;;;24.23;34.38;99444.31;5057392;28;8884;-72
2023/10/23 11:23:38;;;;;;;;;5.60;4.80;;;;;24.39;34.43;99449.28;5048026;28;8845;-70
2023/10/23 11:26:08;;;;;;;;;6.40;6.20;;;;;24.57;34.69;99440.75;5054356;28;8877;-69
2023/10/23 11:28:38;;;;;;;;;5.60;5.60;;;;;24.57;34.67;99430.84;5068619;28;8858;-69
2023/10/23 11:31:07;;;;;;;;;5.00;4.80;;;;;24.58;34.80;99440.59;5068387;28;8878;-70
2023/10/23 11:33:37;;;;;;;;;6.80;6.80;;;;;24.73;34.41;99439.38;5068599;28;8850;-70
2023/10/23 11:36:07;;;;;;;;;6.60;6.60;;;;;24.81;34.03;99435.19;5067473;28;8935;-70
2023/10/23 11:38:38;;;;;;;;;7.40;7.40;;;;;24.74;34.24;99430.34;5068377;28;8842;-69
2023/10/23 11:41:09;;;;;;;;;7.40;7.40;;;;;24.68;34.05;99428.13;5031864;28;8866;-69
2023/10/23 11:43:39;;;;;;;;;8.80;7.00;;;;;24.69;33.61;99428.97;5067495;28;8862;-70
2023/10/23 11:46:08;;;;;;;;;6.80;6.80;;;;;24.68;33.97;99424.56;5067821;28;8877;-69
2023/10/23 11:48:37;;;;;;;;;13.80;12.40;;;;;24.65;34.01;99419.44;5067614;28;9580;-71